Terminal Aerodrome Forecast
Issued by NWS Quad Cities IA IL

Home | Current Version | Previous Version | Text Only | Print | Product List | Glossary On
Versions: 1 2 3 4 5 6 7 8 9 10 11 12 13 14 15 16 17 18 19 20 21 22 23 24 25 26 27 28
569
FTUS43 KDVN 240520
TAFDBQ
TAF
KDBQ 240520Z 2406/2506 16008KT P6SM SCT023
      TEMPO 2406/2408 BKN023
     FM241000 19009KT 5SM BR SCT250
     FM241400 23010KT P6SM BKN120
     FM241900 31009KT P6SM SKC=

USA.gov is the U.S. government's official web portal to all federal, state and local government web resources and services.